Time;durP1;ratioP1;P1;durP2;ratioP2;P2;SDS_P1;SDS_P2;PMS_P1;PMS_P2;Temp;Humidity;BMP_temperature;BMP_pressure;BME280_temperature;BME280_humidity;BME280_pressure;Samples;Min_cycle;Max_cycle;Signal;HPM_P1;HPM_P2
2023/11/10 00:08:47;801305.00;2.67;1383.40;0.00;0.00;0.62;;;;;14.50;1.00;;;;;;2305744;55;3576;-89
2023/11/10 00:26:21;339879.00;1.13;586.47;0.00;0.00;0.62;;;;;14.60;1.00;;;;;;2277798;60;1902;-88
2023/11/10 01:26:19;589413.00;1.96;1015.94;0.00;0.00;0.62;;;;;16.20;1.00;;;;;;2008060;55;3618;-88
2023/11/10 01:43:54;1071255.00;3.57;1859.09;146266.00;0.49;253.37;;;;;15.90;1.00;;;;;;2278008;60;1424;-88
2023/11/10 01:51:19;1995842.00;6.65;3615.79;131285.00;0.44;227.55;;;;;15.90;1.00;;;;;;2278688;61;1317;-89
2023/11/10 02:41:38;824331.00;2.75;1423.59;0.00;0.00;0.62;;;;;15.60;1.00;;;;;;1634984;55;3628;-89
2023/11/10 03:45:09;355920.00;1.19;614.04;0.00;0.00;0.62;;;;;13.00;1.00;;;;;;2278481;61;1372;-89
2023/11/10 03:52:53;119473968.00;398.25;69082648.00;0.00;0.00;0.62;;;;;13.00;1.00;;;;;;2274278;61;1305;-87
2023/11/10 04:02:55;153879.00;0.51;266.49;0.00;0.00;0.62;;;;;12.00;1.00;;;;;;2274444;61;1344;-88
2023/11/10 04:05:22;137258.00;0.46;237.84;0.00;0.00;0.62;;;;;12.00;1.00;;;;;;2272733;61;1493;-86
2023/11/10 04:12:56;179779.00;0.60;311.11;0.00;0.00;0.62;;;;;12.30;1.00;;;;;;2278522;61;1342;-87
2023/11/10 04:20:35;215371.00;0.72;372.38;0.00;0.00;0.62;;;;;11.60;1.00;;;;;;2325503;39;3462;-88
2023/11/10 04:37:58;228382.00;0.76;394.77;0.00;0.00;0.62;;;;;12.10;1.00;;;;;;2277571;60;1328;-86
2023/11/10 04:47:50;220060.00;0.73;380.45;0.00;0.00;0.62;;;;;13.90;1.00;;;;;;2278646;61;1893;-89
2023/11/10 05:10:25;1011584.00;3.37;1753.00;69091.00;0.23;120.19;;;;;13.40;1.00;;;;;;2285187;55;3631;-87
2023/11/10 05:25:37;1771622.00;5.91;3165.45;210712.00;0.70;364.36;;;;;13.30;1.00;;;;;;2276444;39;3521;-89
2023/11/10 05:55:34;406673.00;1.36;701.28;0.00;0.00;0.62;;;;;14.20;1.00;;;;;;2292673;55;3582;-89
2023/11/10 06:35:39;543461.00;1.81;936.69;0.00;0.00;0.62;;;;;14.10;1.00;;;;;;1086645;39;3392;-88
2023/11/10 07:10:41;2149693.00;7.17;3936.36;300282.00;1.00;518.40;;;;;15.40;1.00;;;;;;2298158;40;3526;-89
2023/11/10 07:33:16;651486.00;2.17;1123.21;84115.00;0.28;146.14;;;;;15.90;1.00;;;;;;2282516;61;1354;-89
2023/11/10 07:38:16;478527.00;1.60;824.86;0.00;0.00;0.62;;;;;15.70;1.00;;;;;;2336990;40;3479;-90
2023/11/10 07:48:13;180182.00;0.60;311.80;0.00;0.00;0.62;;;;;15.50;1.00;;;;;;2315671;55;3509;-85
2023/11/10 07:53:08;518925.00;1.73;894.41;0.00;0.00;0.62;;;;;15.00;1.00;;;;;;2277602;60;1416;-88
2023/11/10 07:55:35;199200.00;0.66;344.55;0.00;0.00;0.62;;;;;15.10;1.00;;;;;;2380644;55;3737;-88
2023/11/10 08:18:12;746790.00;2.49;1288.48;0.00;0.00;0.62;;;;;13.70;1.00;;;;;;2278718;61;1007;-88
2023/11/10 08:23:09;522823.00;1.74;901.13;0.00;0.00;0.62;;;;;13.60;1.00;;;;;;2278560;61;1344;-90
2023/11/10 08:25:36;190146.00;0.63;328.96;0.00;0.00;0.62;;;;;13.60;1.00;;;;;;2276868;61;889;-88
2023/11/10 08:58:02;540741.00;1.80;932.00;0.00;0.00;0.62;;;;;14.60;1.00;;;;;;2286302;55;3738;-88
2023/11/10 09:02:58;392183.00;1.31;676.37;0.00;0.00;0.62;;;;;15.10;1.00;;;;;;2316311;39;3469;-88
2023/11/10 09:15:22;409539.00;1.37;706.20;0.00;0.00;0.62;;;;;14.50;1.00;;;;;;2278209;61;1313;-89
2023/11/10 09:25:20;388216.00;1.29;669.55;0.00;0.00;0.62;;;;;13.90;1.00;;;;;;2328576;55;3660;-88
2023/11/10 09:27:47;64054.00;0.21;111.48;0.00;0.00;0.62;;;;;14.10;1.00;;;;;;2280599;60;2004;-88
2023/11/10 09:53:34;626161.00;2.09;1079.41;0.00;0.00;0.62;;;;;14.20;1.00;;;;;;2331061;39;3673;-87
2023/11/10 09:56:02;815996.00;2.72;1409.04;0.00;0.00;0.62;;;;;13.90;1.00;;;;;;2322714;40;3562;-88
2023/11/10 10:03:25;698572.00;2.33;1204.76;0.00;0.00;0.62;;;;;13.80;1.00;;;;;;2517658;40;3461;31
2023/11/10 10:43:25;770722.00;2.57;1330.11;0.00;0.00;0.62;;;;;12.40;1.00;;;;;;2313006;40;3422;-87
2023/11/10 10:53:20;331029.00;1.10;571.25;0.00;0.00;0.62;;;;;13.10;1.00;;;;;;2278816;61;1234;-87
2023/11/10 10:55:53;265963.00;0.89;459.40;2581.00;0.01;5.09;;;;;13.40;1.00;;;;;;2276990;61;1500;-89
2023/11/10 11:08:54;618514.00;2.06;1066.20;0.00;0.00;0.62;;;;;12.60;1.00;;;;;;1955195;56;3578;-89
2023/11/10 11:26:16;430677.00;1.44;742.55;0.00;0.00;0.62;;;;;12.90;1.00;;;;;;2274674;61;1348;-87
2023/11/10 11:31:14;478952.00;1.60;825.59;0.00;0.00;0.62;;;;;12.80;1.00;;;;;;2278494;61;1295;-88
2023/11/10 11:51:09;612433.00;2.04;1055.69;0.00;0.00;0.62;;;;;13.50;1.00;;;;;;2005774;40;3493;-88
2023/11/10 12:01:12;46458.00;0.15;81.06;0.00;0.00;0.62;;;;;13.50;1.00;;;;;;2333664;39;3493;-86
2023/11/10 12:03:39;373165.00;1.24;643.68;0.00;0.00;0.62;;;;;13.10;1.00;;;;;;2323270;39;3744;-87
2023/11/10 12:11:11;296994.00;0.99;512.75;0.00;0.00;0.62;;;;;12.60;1.00;;;;;;2300176;55;3588;-87
2023/11/10 12:16:10;350459.00;1.17;604.65;0.00;0.00;0.62;;;;;12.90;1.00;;;;;;2296768;39;3518;-87
2023/11/10 12:18:37;31251.00;0.10;54.75;0.00;0.00;0.62;;;;;12.80;1.00;;;;;;2280346;60;1660;-84
2023/11/10 12:21:06;58802.00;0.20;102.41;0.00;0.00;0.62;;;;;12.60;1.00;;;;;;2280274;60;1578;-86
2023/11/10 12:23:33;42409.00;0.14;74.06;0.00;0.00;0.62;;;;;12.50;1.00;;;;;;2280418;55;3747;-88
2023/11/10 12:26:02;109451.00;0.36;189.88;0.00;0.00;0.62;;;;;13.10;1.00;;;;;;2276310;60;1690;-87
2023/11/10 12:28:35;174344.00;0.58;301.75;0.00;0.00;0.62;;;;;12.80;1.00;;;;;;2276171;60;2009;-86
2023/11/10 12:31:03;199924.00;0.67;345.79;0.00;0.00;0.62;;;;;12.40;1.00;;;;;;2276213;60;1625;-88
2023/11/10 12:33:32;103720.00;0.35;179.99;0.00;0.00;0.62;;;;;12.40;1.00;;;;;;2276246;60;1613;-86
2023/11/10 12:38:28;244017.00;0.81;421.66;0.00;0.00;0.62;;;;;12.70;1.00;;;;;;2278400;61;1332;-86
2023/11/10 12:46:14;1011911.00;3.37;1753.58;8210.00;0.03;14.85;;;;;13.50;1.00;;;;;;1547053;56;3580;-87
2023/11/10 12:48:41;19032.00;0.06;33.59;0.00;0.00;0.62;;;;;13.80;1.00;;;;;;2280203;60;2005;-87
2023/11/10 12:51:13;1240805.00;4.14;2164.17;64432.00;0.21;112.14;;;;;13.80;1.00;;;;;;2280258;60;1859;-86
2023/11/10 12:53:41;1255329.00;4.18;2190.58;171213.00;0.57;296.36;;;;;13.70;1.00;;;;;;2278592;60;1663;-86
2023/11/10 12:56:08;1354564.00;4.52;2372.32;67262.00;0.22;117.03;;;;;13.30;1.00;;;;;;2275988;60;1090;-87
2023/11/10 12:58:35;1363222.00;4.54;2388.29;186231.00;0.62;322.22;;;;;13.30;1.00;;;;;;2276190;60;928;-87
2023/11/10 13:01:02;665602.00;2.22;1147.64;86709.00;0.29;150.62;;;;;13.20;1.00;;;;;;2276262;60;964;-89
2023/11/10 13:03:30;350536.00;1.17;604.78;87878.00;0.29;152.64;;;;;13.10;1.00;;;;;;2275980;60;1257;-88
2023/11/10 13:05:57;410942.00;1.37;708.62;80230.00;0.27;139.43;;;;;13.10;1.00;;;;;;2276154;60;938;-85
2023/11/10 13:08:25;429204.00;1.43;740.02;75772.00;0.25;131.73;;;;;13.20;1.00;;;;;;2275981;60;2001;-85
2023/11/10 13:10:52;377135.00;1.26;650.50;99525.00;0.33;172.75;;;;;13.00;1.00;;;;;;2276097;60;977;-85
2023/11/10 13:13:22;216864.00;0.72;374.95;0.00;0.00;0.62;;;;;12.90;1.00;;;;;;2304573;40;3604;-85
2023/11/10 13:15:52;175058.00;0.58;302.98;0.00;0.00;0.62;;;;;13.00;1.00;;;;;;2276038;60;1507;-86
2023/11/10 13:18:22;262068.00;0.87;452.70;90153.00;0.30;156.57;;;;;12.90;1.00;;;;;;2276175;60;925;-86
2023/11/10 13:20:53;194240.00;0.65;336.01;0.00;0.00;0.62;;;;;12.80;1.00;;;;;;2276058;60;1587;-85
2023/11/10 13:23:27;214213.00;0.71;370.39;0.00;0.00;0.62;;;;;12.80;1.00;;;;;;2275979;60;1597;-84
2023/11/10 13:25:54;48785.00;0.16;85.08;0.00;0.00;0.62;;;;;13.10;1.00;;;;;;2276028;60;1581;-87
2023/11/10 13:28:21;182599.00;0.61;315.97;0.00;0.00;0.62;;;;;13.20;1.00;;;;;;2276004;60;1919;-86
2023/11/10 13:30:49;0.00;0.00;0.62;0.00;0.00;0.62;;;;;13.50;1.00;;;;;;2276104;60;1090;-88
2023/11/10 13:33:16;253089.00;0.84;437.26;22212.00;0.07;39.10;;;;;13.50;1.00;;;;;;2276011;60;1379;-86
2023/11/10 13:35:43;0.00;0.00;0.62;0.00;0.00;0.62;;;;;13.20;1.00;;;;;;2276106;60;1664;-87
2023/11/10 13:38:12;21973.00;0.07;38.69;0.00;0.00;0.62;;;;;13.30;1.00;;;;;;2276028;60;1436;-86
2023/11/10 13:40:40;183506.00;0.61;317.53;0.00;0.00;0.62;;;;;13.00;1.00;;;;;;2284767;39;3622;-86
2023/11/10 13:43:08;115659.00;0.39;200.59;0.00;0.00;0.62;;;;;12.90;1.00;;;;;;2279538;60;1315;-86
2023/11/10 13:48:04;353682.00;1.18;610.19;0.00;0.00;0.62;;;;;12.70;1.00;;;;;;2277375;60;1895;-86
2023/11/10 13:50:31;92074.00;0.31;159.89;0.00;0.00;0.62;;;;;13.10;1.00;;;;;;2275645;60;1639;-86
2023/11/10 13:52:59;148125.00;0.49;256.58;0.00;0.00;0.62;;;;;13.20;1.00;;;;;;2279734;39;3597;-87
2023/11/10 13:58:03;914926.00;3.05;1582.35;0.00;0.00;0.62;;;;;13.50;1.00;;;;;;2276998;60;1451;-87
2023/11/10 14:00:30;225876.00;0.75;390.45;0.00;0.00;0.62;;;;;13.10;1.00;;;;;;2275582;60;1532;-86
2023/11/10 14:02:57;96659.00;0.32;167.80;0.00;0.00;0.62;;;;;12.90;1.00;;;;;;2275604;60;1488;-87
2023/11/10 14:05:24;149870.00;0.50;259.58;0.00;0.00;0.62;;;;;13.00;1.00;;;;;;2275784;60;1431;-88
2023/11/10 14:10:21;440719.00;1.47;759.82;0.00;0.00;0.62;;;;;13.20;1.00;;;;;;2305339;40;3501;-87
2023/11/10 14:12:48;122916.00;0.41;213.11;0.00;0.00;0.62;;;;;13.30;1.00;;;;;;2284396;60;1554;-86
2023/11/10 14:15:17;70648.00;0.24;122.88;0.00;0.00;0.62;;;;;13.50;1.00;;;;;;2315317;39;3763;-87
2023/11/10 14:17:44;144919.00;0.48;251.05;0.00;0.00;0.62;;;;;13.50;1.00;;;;;;2280516;60;1141;-88
2023/11/10 14:20:12;146233.00;0.49;253.32;0.00;0.00;0.62;;;;;13.70;1.00;;;;;;2285230;40;3589;-87
2023/11/10 14:22:42;91417.00;0.30;158.75;0.00;0.00;0.62;;;;;13.50;1.00;;;;;;2280573;60;1256;-86
2023/11/10 14:25:10;202757.00;0.68;350.67;0.00;0.00;0.62;;;;;13.40;1.00;;;;;;2295243;56;3828;-87
2023/11/10 14:27:37;208009.00;0.69;359.71;0.00;0.00;0.62;;;;;13.30;1.00;;;;;;2280534;60;2012;-86
2023/11/10 14:37:37;514741.00;1.72;887.21;0.00;0.00;0.62;;;;;12.80;1.00;;;;;;2278863;61;1313;-89
2023/11/10 14:42:32;294135.00;0.98;507.84;0.00;0.00;0.62;;;;;12.60;1.00;;;;;;1569001;56;3559;-87
2023/11/10 14:47:30;1158230.00;3.86;2014.88;60429.00;0.20;105.22;;;;;12.80;1.00;;;;;;2374205;39;3650;-88
2023/11/10 14:52:34;1486631.00;4.96;2617.99;147998.00;0.49;256.36;;;;;12.80;1.00;;;;;;2380191;40;3455;-86
2023/11/10 15:05:10;1146488.00;3.82;1993.76;121923.00;0.41;211.40;;;;;13.00;1.00;;;;;;2282012;55;3606;-87
2023/11/10 15:07:37;256158.00;0.85;442.54;83248.00;0.28;144.65;;;;;13.30;1.00;;;;;;2305188;55;3734;-87
2023/11/10 15:12:38;653903.00;2.18;1127.39;0.00;0.00;0.62;;;;;14.00;1.00;;;;;;2299604;39;3642;-89
2023/11/10 15:17:36;548494.00;1.83;945.36;0.00;0.00;0.62;;;;;13.80;1.00;;;;;;2350579;55;3588;-88
2023/11/10 15:20:07;158412.00;0.53;274.30;0.00;0.00;0.62;;;;;13.60;1.00;;;;;;2297746;55;3718;-87
2023/11/10 15:22:40;16741.00;0.06;29.63;0.00;0.00;0.62;;;;;13.50;1.00;;;;;;2288992;55;3762;-88
2023/11/10 15:40:12;1058458.00;3.53;1836.29;98856.00;0.33;171.60;;;;;12.90;1.00;;;;;;2382934;39;3650;-87
2023/11/10 15:45:10;1233677.00;4.11;2151.23;64273.00;0.21;111.86;;;;;13.80;1.00;;;;;;2296067;39;3487;-86
2023/11/10 15:50:08;1812032.00;6.04;3245.24;26834.00;0.09;47.10;;;;;13.20;1.00;;;;;;1544239;56;3591;-89
2023/11/10 15:55:08;2164505.00;7.22;3967.76;129371.00;0.43;224.24;;;;;13.00;1.00;;;;;;2283975;55;3765;-87
2023/11/10 15:57:36;1385266.00;4.62;2429.02;109716.00;0.37;190.34;;;;;13.00;1.00;;;;;;2283832;55;3726;-87
2023/11/10 16:00:04;1068371.00;3.56;1853.95;100869.00;0.34;175.07;;;;;12.80;1.00;;;;;;2280081;60;1069;-87
2023/11/10 16:02:34;951659.00;3.17;1647.04;28842.00;0.10;50.58;;;;;12.50;1.00;;;;;;2314381;39;3608;-87
2023/11/10 16:10:05;1979505.00;6.60;3582.33;112000.00;0.37;194.28;;;;;12.40;1.00;;;;;;2278163;60;1888;-89
2023/11/10 16:12:32;1589304.00;5.30;2812.31;247194.00;0.82;427.12;;;;;12.40;1.00;;;;;;2276206;60;906;-86
2023/11/10 16:15:01;1169815.00;3.90;2035.74;218098.00;0.73;377.07;;;;;12.20;1.00;;;;;;2276130;60;1812;-89
2023/11/10 16:19:55;757311.00;2.52;1306.77;118413.00;0.39;205.34;;;;;12.30;1.00;;;;;;2278331;60;1408;-86
2023/11/10 16:22:22;368351.00;1.23;635.40;58370.00;0.19;101.66;;;;;12.40;1.00;;;;;;2276283;60;1028;-86
2023/11/10 16:24:50;297683.00;0.99;513.94;88580.00;0.30;153.86;;;;;12.20;1.00;;;;;;2276344;60;1345;-88
2023/11/10 16:27:17;259494.00;0.86;448.28;58074.00;0.19;101.15;;;;;12.20;1.00;;;;;;2276229;60;1668;-86
2023/11/10 16:29:46;281467.00;0.94;486.06;27968.00;0.09;49.07;;;;;12.10;1.00;;;;;;2276198;60;1922;-86
2023/11/10 16:32:14;198930.00;0.66;344.08;0.00;0.00;0.62;;;;;12.10;1.00;;;;;;2276198;60;1541;-86
2023/11/10 16:34:41;250884.00;0.84;433.47;3467.00;0.01;6.63;;;;;12.00;1.00;;;;;;2276129;60;1424;-86
2023/11/10 16:37:08;153502.00;0.51;265.84;0.00;0.00;0.62;;;;;12.00;1.00;;;;;;2276057;60;866;-86
2023/11/10 16:39:35;193809.00;0.65;335.27;0.00;0.00;0.62;;;;;12.10;1.00;;;;;;2275921;60;1528;-87
2023/11/10 16:44:32;561585.00;1.87;967.93;0.00;0.00;0.62;;;;;12.00;1.00;;;;;;2337030;39;3719;-85
2023/11/10 16:57:00;547166.00;1.82;943.07;0.00;0.00;0.62;;;;;11.60;1.00;;;;;;2277731;60;1396;-87
2023/11/10 16:59:27;239703.00;0.80;414.24;0.00;0.00;0.62;;;;;11.70;1.00;;;;;;2276000;60;1613;-86
2023/11/10 17:01:56;105014.00;0.35;182.23;0.00;0.00;0.62;;;;;11.60;1.00;;;;;;2275916;60;1036;-86
2023/11/10 17:09:26;1468836.00;4.90;2584.62;171481.00;0.57;296.82;;;;;11.10;1.00;;;;;;1634101;55;3708;-89
2023/11/10 17:11:53;1366524.00;4.56;2394.38;145582.00;0.49;252.19;;;;;11.00;1.00;;;;;;2280223;60;1093;-86
2023/11/10 17:14:25;1392755.00;4.64;2442.89;118224.00;0.39;205.02;;;;;10.90;1.00;;;;;;2277220;60;1603;-87
2023/11/10 17:21:52;702748.00;2.34;1212.00;86780.00;0.29;150.75;;;;;10.80;1.00;;;;;;2278565;61;1356;-86
2023/11/10 17:24:20;553197.00;1.84;953.47;94450.00;0.31;163.99;;;;;11.00;1.00;;;;;;2276726;61;1430;-86
2023/11/10 17:26:49;552338.00;1.84;951.99;86269.00;0.29;149.86;;;;;11.10;1.00;;;;;;2276778;61;880;-87
2023/11/10 17:31:49;835548.00;2.79;1443.19;138508.00;0.46;240.00;;;;;11.30;1.00;;;;;;2278732;61;1205;-88
2023/11/10 17:34:17;499253.00;1.66;860.54;81971.00;0.27;142.44;;;;;11.30;1.00;;;;;;2276587;61;1293;-86
2023/11/10 17:36:51;520797.00;1.74;897.64;79092.00;0.26;137.47;;;;;11.40;1.00;;;;;;2276667;61;1632;-87
2023/11/10 17:39:19;951266.00;3.17;1646.34;128758.00;0.43;223.19;;;;;11.40;1.00;;;;;;2276689;61;1563;-85
2023/11/10 17:41:46;972778.00;3.24;1684.32;166966.00;0.56;289.04;;;;;11.40;1.00;;;;;;2276681;61;1129;-86
2023/11/10 17:44:13;801062.00;2.67;1382.98;125921.00;0.42;218.29;;;;;11.40;1.00;;;;;;2277297;61;1429;-87
2023/11/10 17:46:40;881681.00;2.94;1523.97;176211.00;0.59;304.96;;;;;11.20;1.00;;;;;;2277390;61;1118;-87
2023/11/10 17:49:10;887968.00;2.96;1535.00;91381.00;0.30;158.69;;;;;11.20;1.00;;;;;;2277297;60;1996;-88
2023/11/10 17:51:38;120408088.00;401.36;70717240.00;101861.00;0.34;176.78;;;;;11.10;1.00;;;;;;2276602;60;1560;-85
2023/11/10 17:54:08;1243306.00;4.14;2168.72;112900.00;0.38;195.83;;;;;11.00;1.00;;;;;;2276558;60;1549;-86
2023/11/10 17:59:07;2130370.00;7.10;3895.54;143982.00;0.48;249.44;;;;;11.10;1.00;;;;;;2270060;61;1450;-87
2023/11/10 18:01:34;1259172.00;4.20;2197.58;87879.00;0.29;152.65;;;;;11.10;1.00;;;;;;2268629;61;1674;-87
2023/11/10 18:04:06;1155285.00;3.85;2009.58;79546.00;0.27;138.25;;;;;11.00;1.00;;;;;;2268410;61;1472;-88
2023/11/10 18:06:37;825796.00;2.75;1426.15;39814.00;0.13;69.57;;;;;10.90;1.00;;;;;;2268539;61;1457;-87
2023/11/10 18:09:05;797328.00;2.66;1376.46;71656.00;0.24;124.62;;;;;11.00;1.00;;;;;;2268583;61;2008;-86
2023/11/10 18:11:34;650732.00;2.17;1121.90;0.00;0.00;0.62;;;;;11.00;1.00;;;;;;2268561;61;1777;-87
2023/11/10 18:14:01;562937.00;1.88;970.27;45502.00;0.15;79.41;;;;;11.00;1.00;;;;;;2268421;61;1557;-88
2023/11/10 18:16:31;1011799.00;3.37;1753.38;27529.00;0.09;48.31;;;;;11.10;1.00;;;;;;2307476;39;3598;-87
2023/11/10 18:19:01;846987.00;2.82;1463.20;80398.00;0.27;139.72;;;;;11.10;1.00;;;;;;2284596;60;1524;-87
2023/11/10 18:24:02;1276667.00;4.26;2229.47;25989.00;0.09;45.64;;;;;10.90;1.00;;;;;;2277960;60;1427;-87
2023/11/10 18:26:32;184863.00;0.62;319.86;29514.00;0.10;51.74;;;;;11.00;1.00;;;;;;2276515;60;1612;-87
2023/11/10 18:29:01;359715.00;1.20;620.56;55116.00;0.18;96.03;;;;;11.10;1.00;;;;;;2276285;60;2002;-86
2023/11/10 18:31:30;228260.00;0.76;394.56;0.00;0.00;0.62;;;;;11.10;1.00;;;;;;2276582;60;2141;-88
2023/11/10 18:36:27;641533.00;2.14;1105.99;0.00;0.00;0.62;;;;;11.00;1.00;;;;;;2028444;40;3567;-86
2023/11/10 18:39:00;103653.00;0.35;179.88;0.00;0.00;0.62;;;;;11.00;1.00;;;;;;2280658;60;1661;-87
2023/11/10 18:41:27;177335.00;0.59;306.90;0.00;0.00;0.62;;;;;11.00;1.00;;;;;;2280607;60;1164;-87
2023/11/10 18:43:55;449656.00;1.50;775.19;17811.00;0.06;31.48;;;;;10.90;1.00;;;;;;2278466;60;1655;-88
2023/11/10 18:46:24;101516.00;0.34;176.19;0.00;0.00;0.62;;;;;10.90;1.00;;;;;;2276495;60;1697;-86
2023/11/10 18:48:57;261748.00;0.87;452.15;0.00;0.00;0.62;;;;;10.80;1.00;;;;;;2276358;60;2006;-86
2023/11/10 18:51:26;314887.00;1.05;543.51;41905.00;0.14;73.18;;;;;10.70;1.00;;;;;;2276421;60;1532;-87
2023/11/10 18:53:53;122431.00;0.41;212.28;0.00;0.00;0.62;;;;;10.80;1.00;;;;;;2275958;60;1622;-86
2023/11/10 18:56:30;333439.00;1.11;575.40;8075.00;0.03;14.61;;;;;10.90;1.00;;;;;;2276269;60;1466;-86
2023/11/10 18:58:59;345691.00;1.15;596.46;0.00;0.00;0.62;;;;;11.00;1.00;;;;;;2276452;60;1018;-86
2023/11/10 19:01:29;183107.00;0.61;316.84;0.00;0.00;0.62;;;;;10.90;1.00;;;;;;2276540;60;1529;-86
2023/11/10 19:04:00;180330.00;0.60;312.06;0.00;0.00;0.62;;;;;11.00;1.00;;;;;;2276182;60;1590;-87
2023/11/10 19:06:28;177858.00;0.59;307.80;0.00;0.00;0.62;;;;;11.10;1.00;;;;;;2276545;60;1585;-87
2023/11/10 19:09:04;187255.00;0.62;323.98;0.00;0.00;0.62;;;;;11.20;1.00;;;;;;2287161;55;3743;-88
2023/11/10 19:11:38;481418.00;1.60;829.84;11048.00;0.04;19.76;;;;;11.20;1.00;;;;;;2280439;60;1809;-87
2023/11/10 19:14:11;231727.00;0.77;400.52;0.00;0.00;0.62;;;;;11.30;1.00;;;;;;2278194;60;1497;-88
2023/11/10 19:16:43;397801.00;1.33;686.02;17482.00;0.06;30.91;;;;;11.40;1.00;;;;;;2276390;60;1428;-85
2023/11/10 19:19:13;343214.00;1.14;592.20;23761.00;0.08;41.78;;;;;11.40;1.00;;;;;;2276431;60;1538;-86
2023/11/10 19:21:41;305877.00;1.02;528.02;0.00;0.00;0.62;;;;;11.30;1.00;;;;;;2276451;60;939;-86
2023/11/10 19:24:14;390602.00;1.30;673.65;0.00;0.00;0.62;;;;;11.40;1.00;;;;;;2276130;60;1514;-86
2023/11/10 19:26:49;173436.00;0.58;300.18;0.00;0.00;0.62;;;;;11.30;1.00;;;;;;2276364;60;1420;-87
2023/11/10 19:29:30;188277.00;0.63;325.74;0.00;0.00;0.62;;;;;11.00;1.00;;;;;;2276191;60;2010;-87
2023/11/10 19:34:51;324900.00;1.08;560.72;77188.00;0.26;134.18;;;;;11.20;1.00;;;;;;2275870;60;1269;-86
2023/11/10 19:37:30;484216.00;1.61;834.65;97266.00;0.32;168.85;;;;;11.20;1.00;;;;;;2276465;60;1088;-86
2023/11/10 19:40:00;938880.00;3.13;1624.51;121379.00;0.40;210.46;;;;;11.30;1.00;;;;;;2276370;60;1442;-86
2023/11/10 19:42:30;1120012.00;3.73;1946.25;27578.00;0.09;48.39;;;;;11.20;1.00;;;;;;2276409;60;1169;-86
2023/11/10 19:45:01;977081.00;3.26;1691.92;9815.00;0.03;17.63;;;;;11.00;1.00;;;;;;2276001;60;1477;-87
2023/11/10 19:47:33;122446848.00;408.16;74374048.00;40847.00;0.14;71.35;;;;;11.10;1.00;;;;;;2276335;60;1522;-87
2023/11/10 19:50:01;753790.00;2.51;1300.65;18596.00;0.06;32.84;;;;;11.10;1.00;;;;;;2276086;60;2014;-85
2023/11/10 19:52:30;882713.00;2.94;1525.78;50764.00;0.17;88.51;;;;;11.20;1.00;;;;;;2276303;60;1587;-85
2023/11/10 19:54:58;956265.00;3.19;1655.16;41334.00;0.14;72.20;;;;;11.20;1.00;;;;;;2276131;60;1383;-87
2023/11/10 19:57:34;814661.00;2.72;1406.70;0.00;0.00;0.62;;;;;11.40;1.00;;;;;;2276155;60;1301;-85
2023/11/10 20:00:03;215907.00;0.72;373.30;0.00;0.00;0.62;;;;;11.40;1.00;;;;;;2276387;60;1513;-85
2023/11/10 20:02:32;346352.00;1.15;597.59;22289.00;0.07;39.23;;;;;11.30;1.00;;;;;;2276399;60;987;-86
2023/11/10 20:04:59;280668.00;0.94;484.69;23685.00;0.08;41.65;;;;;11.20;1.00;;;;;;2276084;60;1355;-85
2023/11/10 20:07:33;390835.00;1.30;674.05;0.00;0.00;0.62;;;;;11.10;1.00;;;;;;2276384;60;1245;-87
2023/11/10 20:10:02;95047.00;0.32;165.02;22437.00;0.07;39.49;;;;;11.00;1.00;;;;;;2276076;60;1973;-84
2023/11/10 20:12:36;185912.00;0.62;321.67;36082.00;0.12;63.11;;;;;10.80;1.00;;;;;;2276339;60;996;-85
2023/11/10 20:15:13;236471.00;0.79;408.68;0.00;0.00;0.62;;;;;10.40;1.00;;;;;;2276075;60;1555;-87
2023/11/10 20:17:46;76974.00;0.26;133.81;0.00;0.00;0.62;;;;;10.60;1.00;;;;;;2276282;60;1518;-86
2023/11/10 20:20:19;329822.00;1.10;569.18;0.00;0.00;0.62;;;;;11.00;1.00;;;;;;2276160;60;1627;-86
2023/11/10 20:22:49;116836.00;0.39;202.62;0.00;0.00;0.62;;;;;11.00;1.00;;;;;;2276126;60;1503;-86
2023/11/10 20:25:27;467443.00;1.56;805.79;74902.00;0.25;130.23;;;;;10.90;1.00;;;;;;2276201;60;1483;-86
2023/11/10 20:27:55;228709.00;0.76;395.33;0.00;0.00;0.62;;;;;10.80;1.00;;;;;;2276204;60;1480;-87
2023/11/10 20:30:27;135092.00;0.45;234.11;0.00;0.00;0.62;;;;;10.80;1.00;;;;;;2276174;60;2013;-87
2023/11/10 20:33:00;324770.00;1.08;560.50;0.00;0.00;0.62;;;;;10.90;1.00;;;;;;2275748;60;1612;-86
2023/11/10 20:35:31;159525.00;0.53;276.22;0.00;0.00;0.62;;;;;10.90;1.00;;;;;;2275788;60;1540;-87
2023/11/10 20:38:04;408601.00;1.36;704.59;71947.00;0.24;125.12;;;;;10.90;1.00;;;;;;2275957;60;1507;-86
2023/11/10 20:40:41;354076.00;1.18;610.87;0.00;0.00;0.62;;;;;10.70;1.00;;;;;;2275761;60;2198;-87
2023/11/10 20:43:16;206525.00;0.69;357.15;0.00;0.00;0.62;;;;;10.90;1.00;;;;;;2275887;60;1562;-87
2023/11/10 20:45:50;587456.00;1.96;1012.57;52200.00;0.17;90.99;;;;;11.10;1.00;;;;;;2275872;60;1524;-84
2023/11/10 20:48:19;33699.00;0.11;58.99;0.00;0.00;0.62;;;;;11.30;1.00;;;;;;2275929;60;2015;-86
2023/11/10 20:50:50;80733.00;0.27;140.30;0.00;0.00;0.62;;;;;11.30;1.00;;;;;;2275839;60;2010;-86
2023/11/10 20:53:21;289036.00;0.96;499.07;88907.00;0.30;154.42;;;;;10.90;1.00;;;;;;2275733;60;1591;-86
2023/11/10 20:55:53;717171.00;2.39;1237.03;148536.00;0.50;257.28;;;;;10.90;1.00;;;;;;2275845;60;1608;-86
2023/11/10 20:58:21;731802.00;2.44;1262.43;111476.00;0.37;193.38;;;;;11.10;1.00;;;;;;2275798;60;1545;-86
2023/11/10 21:01:03;456919.00;1.52;787.68;82252.00;0.27;142.93;;;;;11.30;1.00;;;;;;2275836;60;1475;-88
2023/11/10 21:03:31;853874.00;2.85;1475.25;105874.00;0.35;183.71;;;;;11.40;1.00;;;;;;2275690;60;1449;-86
2023/11/10 21:05:59;835160.00;2.78;1442.51;101376.00;0.34;175.95;;;;;11.20;1.00;;;;;;2275765;60;1544;-85
2023/11/10 21:08:27;1205102.00;4.02;2099.45;112935.00;0.38;195.89;;;;;11.30;1.00;;;;;;2275766;60;1732;-85
2023/11/10 21:10:56;1075443.00;3.58;1866.56;108164.00;0.36;187.66;;;;;11.30;1.00;;;;;;2275567;60;1998;-85
2023/11/10 21:16:02;1022267.00;3.41;1771.95;46841.00;0.16;81.72;;;;;11.20;1.00;;;;;;1978616;59;2198;-86
2023/11/10 21:18:33;607994.00;2.03;1048.02;0.00;0.00;0.62;;;;;11.00;1.00;;;;;;2272197;61;1616;-86
2023/11/10 21:21:06;615582.00;2.05;1061.13;0.00;0.00;0.62;;;;;11.20;1.00;;;;;;2272460;61;1445;-86
2023/11/10 21:23:38;742614.00;2.48;1281.22;41312.00;0.14;72.16;;;;;11.30;1.00;;;;;;2272342;61;1614;-86
2023/11/10 21:26:06;891535.00;2.97;1541.26;93932.00;0.31;163.10;;;;;11.40;1.00;;;;;;2272390;61;1074;-86
2023/11/10 21:28:36;721358.00;2.40;1244.30;13665.00;0.05;24.30;;;;;11.50;1.00;;;;;;2272330;61;1624;-87
2023/11/10 21:31:05;193930.00;0.65;335.47;0.00;0.00;0.62;;;;;11.60;1.00;;;;;;2272209;61;1994;-86
2023/11/10 21:33:39;709376.00;2.36;1223.50;69819.00;0.23;121.45;;;;;11.40;1.00;;;;;;2272357;61;1528;-86
2023/11/10 21:38:44;714145.00;2.38;1231.78;0.00;0.00;0.62;;;;;11.00;1.00;;;;;;2277907;60;1406;-87
2023/11/10 21:41:16;219692.00;0.73;379.81;0.00;0.00;0.62;;;;;11.00;1.00;;;;;;2276548;60;922;-84
2023/11/10 21:43:43;44962.00;0.15;78.47;0.00;0.00;0.62;;;;;11.10;1.00;;;;;;2275960;60;1469;-85
2023/11/10 21:46:13;261764.00;0.87;452.18;0.00;0.00;0.62;;;;;10.90;1.00;;;;;;2276445;60;1680;-86
2023/11/10 21:48:40;319160.00;1.06;550.85;0.00;0.00;0.62;;;;;10.90;1.00;;;;;;2276362;60;1654;-86
2023/11/10 21:51:07;222535.00;0.74;384.71;0.00;0.00;0.62;;;;;11.10;1.00;;;;;;2276468;60;1995;-85
2023/11/10 21:56:17;713239.00;2.38;1230.20;0.00;0.00;0.62;;;;;10.80;1.00;;;;;;2278458;60;1395;-85
2023/11/10 21:58:45;34273.00;0.11;59.98;0.00;0.00;0.62;;;;;11.20;1.00;;;;;;2276420;60;1473;-85
2023/11/10 22:01:17;193898.00;0.65;335.42;0.00;0.00;0.62;;;;;11.40;1.00;;;;;;2276503;60;1448;-86
2023/11/10 22:03:47;163851.00;0.55;283.67;0.00;0.00;0.62;;;;;11.30;1.00;;;;;;2276462;60;1276;-87
2023/11/10 22:06:18;262399.00;0.87;453.27;0.00;0.00;0.62;;;;;11.20;1.00;;;;;;2276500;60;1576;-85
2023/11/10 22:08:50;223140.00;0.74;385.75;0.00;0.00;0.62;;;;;11.30;1.00;;;;;;2276333;60;1571;-84
2023/11/10 22:11:23;264823.00;0.88;457.44;0.00;0.00;0.62;;;;;11.60;1.00;;;;;;2276417;60;2014;-85
2023/11/10 22:13:51;395947.00;1.32;682.84;19111.00;0.06;33.73;;;;;11.70;1.00;;;;;;2276340;60;1257;-86